sensor_id;sensor_type;location;lat;lon;timestamp;P1;durP1;ratioP1;P2;durP2;ratioP2
13708;SDS011;54933;51.908;7.730;2022-08-21T00:00:59;1.23;;;1.13;;
13708;SDS011;54933;51.908;7.730;2022-08-21T00:03:28;0.90;;;0.90;;
13708;SDS011;54933;51.908;7.730;2022-08-21T00:05:53;0.90;;;0.90;;
13708;SDS011;54933;51.908;7.730;2022-08-21T00:08:19;1.07;;;1.07;;
13708;SDS011;54933;51.908;7.730;2022-08-21T00:10:46;0.70;;;0.70;;
13708;SDS011;54933;51.908;7.730;2022-08-21T00:13:13;0.83;;;0.83;;
13708;SDS011;54933;51.908;7.730;2022-08-21T00:15:39;1.10;;;1.10;;
13708;SDS011;54933;51.908;7.730;2022-08-21T00:18:06;1.67;;;1.10;;
13708;SDS011;54933;51.908;7.730;2022-08-21T00:20:33;1.00;;;1.00;;
13708;SDS011;54933;51.908;7.730;2022-08-21T00:22:59;1.30;;;0.93;;
13708;SDS011;54933;51.908;7.730;2022-08-21T00:25:25;1.10;;;1.00;;
13708;SDS011;54933;51.908;7.730;2022-08-21T00:27:50;1.00;;;1.00;;
13708;SDS011;54933;51.908;7.730;2022-08-21T00:30:17;1.00;;;1.00;;
13708;SDS011;54933;51.908;7.730;2022-08-21T00:32:43;1.20;;;1.10;;
13708;SDS011;54933;51.908;7.730;2022-08-21T00:35:12;0.80;;;0.80;;
13708;SDS011;54933;51.908;7.730;2022-08-21T00:37:40;1.00;;;1.00;;
13708;SDS011;54933;51.908;7.730;2022-08-21T00:40:07;1.93;;;1.30;;
13708;SDS011;54933;51.908;7.730;2022-08-21T00:42:35;1.30;;;1.20;;
13708;SDS011;54933;51.908;7.730;2022-08-21T00:45:01;1.13;;;0.90;;
13708;SDS011;54933;51.908;7.730;2022-08-21T00:47:27;0.93;;;0.93;;
13708;SDS011;54933;51.908;7.730;2022-08-21T00:49:53;0.97;;;0.97;;
13708;SDS011;54933;51.908;7.730;2022-08-21T00:52:19;1.47;;;1.00;;
13708;SDS011;54933;51.908;7.730;2022-08-21T00:54:49;1.10;;;1.00;;
13708;SDS011;54933;51.908;7.730;2022-08-21T00:57:20;1.00;;;1.00;;
13708;SDS011;54933;51.908;7.730;2022-08-21T00:59:51;1.00;;;1.00;;
13708;SDS011;54933;51.908;7.730;2022-08-21T01:02:20;1.00;;;1.00;;
13708;SDS011;54933;51.908;7.730;2022-08-21T01:04:46;1.10;;;1.10;;
13708;SDS011;54933;51.908;7.730;2022-08-21T01:07:12;0.97;;;0.97;;
13708;SDS011;54933;51.908;7.730;2022-08-21T01:09:38;0.97;;;0.97;;
13708;SDS011;54933;51.908;7.730;2022-08-21T01:12:04;2.43;;;1.20;;
13708;SDS011;54933;51.908;7.730;2022-08-21T01:14:29;1.70;;;1.00;;
13708;SDS011;54933;51.908;7.730;2022-08-21T01:16:56;0.90;;;0.90;;
13708;SDS011;54933;51.908;7.730;2022-08-21T01:19:23;1.27;;;1.10;;
13708;SDS011;54933;51.908;7.730;2022-08-21T01:21:49;1.13;;;1.07;;
13708;SDS011;54933;51.908;7.730;2022-08-21T01:24:14;1.27;;;1.10;;
13708;SDS011;54933;51.908;7.730;2022-08-21T01:26:40;1.03;;;1.03;;
13708;SDS011;54933;51.908;7.730;2022-08-21T01:29:15;0.70;;;0.70;;
13708;SDS011;54933;51.908;7.730;2022-08-21T01:31:41;1.33;;;0.93;;
13708;SDS011;54933;51.908;7.730;2022-08-21T01:34:07;1.00;;;1.00;;
13708;SDS011;54933;51.908;7.730;2022-08-21T01:36:33;1.10;;;1.00;;
13708;SDS011;54933;51.908;7.730;2022-08-21T01:38:59;0.90;;;0.90;;
13708;SDS011;54933;51.908;7.730;2022-08-21T01:41:25;1.10;;;0.97;;
13708;SDS011;54933;51.908;7.730;2022-08-21T01:43:50;1.97;;;1.10;;
13708;SDS011;54933;51.908;7.730;2022-08-21T01:46:16;1.00;;;0.93;;
13708;SDS011;54933;51.908;7.730;2022-08-21T01:48:42;1.07;;;1.07;;
13708;SDS011;54933;51.908;7.730;2022-08-21T01:51:08;1.33;;;1.20;;
13708;SDS011;54933;51.908;7.730;2022-08-21T01:53:33;0.93;;;0.93;;
13708;SDS011;54933;51.908;7.730;2022-08-21T01:56:00;2.00;;;1.00;;
13708;SDS011;54933;51.908;7.730;2022-08-21T01:58:27;1.10;;;1.10;;
13708;SDS011;54933;51.908;7.730;2022-08-21T02:00:52;0.80;;;0.80;;
13708;SDS011;54933;51.908;7.730;2022-08-21T02:03:18;0.90;;;0.90;;
13708;SDS011;54933;51.908;7.730;2022-08-21T02:05:43;1.00;;;1.00;;
13708;SDS011;54933;51.908;7.730;2022-08-21T02:08:08;1.00;;;1.00;;
13708;SDS011;54933;51.908;7.730;2022-08-21T02:10:34;0.80;;;0.80;;
13708;SDS011;54933;51.908;7.730;2022-08-21T02:12:59;1.13;;;1.03;;
13708;SDS011;54933;51.908;7.730;2022-08-21T02:15:26;1.10;;;1.00;;
13708;SDS011;54933;51.908;7.730;2022-08-21T02:17:54;0.87;;;0.87;;
13708;SDS011;54933;51.908;7.730;2022-08-21T02:20:23;0.90;;;0.90;;
13708;SDS011;54933;51.908;7.730;2022-08-21T02:22:50;0.77;;;0.77;;
13708;SDS011;54933;51.908;7.730;2022-08-21T02:25:16;1.37;;;1.20;;
13708;SDS011;54933;51.908;7.730;2022-08-21T02:27:44;0.77;;;0.77;;
13708;SDS011;54933;51.908;7.730;2022-08-21T02:30:14;0.80;;;0.80;;
13708;SDS011;54933;51.908;7.730;2022-08-21T02:32:41;0.87;;;0.80;;
13708;SDS011;54933;51.908;7.730;2022-08-21T02:35:07;1.30;;;1.13;;
13708;SDS011;54933;51.908;7.730;2022-08-21T02:37:42;2.77;;;1.10;;
13708;SDS011;54933;51.908;7.730;2022-08-21T02:40:08;1.00;;;1.00;;
13708;SDS011;54933;51.908;7.730;2022-08-21T02:42:36;1.53;;;0.83;;
13708;SDS011;54933;51.908;7.730;2022-08-21T02:45:02;0.80;;;0.80;;
13708;SDS011;54933;51.908;7.730;2022-08-21T02:47:28;1.27;;;1.17;;
13708;SDS011;54933;51.908;7.730;2022-08-21T02:49:53;0.90;;;0.90;;
13708;SDS011;54933;51.908;7.730;2022-08-21T02:52:18;1.10;;;1.10;;
13708;SDS011;54933;51.908;7.730;2022-08-21T02:54:44;0.80;;;0.80;;
13708;SDS011;54933;51.908;7.730;2022-08-21T02:57:09;1.10;;;1.00;;
13708;SDS011;54933;51.908;7.730;2022-08-21T02:59:34;0.83;;;0.83;;
13708;SDS011;54933;51.908;7.730;2022-08-21T03:01:59;1.13;;;0.87;;
13708;SDS011;54933;51.908;7.730;2022-08-21T03:04:25;1.00;;;1.00;;
13708;SDS011;54933;51.908;7.730;2022-08-21T03:06:50;0.90;;;0.90;;
13708;SDS011;54933;51.908;7.730;2022-08-21T03:09:15;1.20;;;1.10;;
13708;SDS011;54933;51.908;7.730;2022-08-21T03:11:40;1.10;;;1.00;;
13708;SDS011;54933;51.908;7.730;2022-08-21T03:14:06;1.23;;;1.00;;
13708;SDS011;54933;51.908;7.730;2022-08-21T03:16:31;1.10;;;1.00;;
13708;SDS011;54933;51.908;7.730;2022-08-21T03:18:56;0.97;;;0.97;;
13708;SDS011;54933;51.908;7.730;2022-08-21T03:21:21;0.70;;;0.70;;
13708;SDS011;54933;51.908;7.730;2022-08-21T03:23:47;1.23;;;1.10;;
13708;SDS011;54933;51.908;7.730;2022-08-21T03:26:12;0.80;;;0.80;;
13708;SDS011;54933;51.908;7.730;2022-08-21T03:28:38;1.00;;;1.00;;
13708;SDS011;54933;51.908;7.730;2022-08-21T03:31:03;0.70;;;0.70;;
13708;SDS011;54933;51.908;7.730;2022-08-21T03:33:30;0.80;;;0.80;;
13708;SDS011;54933;51.908;7.730;2022-08-21T03:36:00;0.70;;;0.70;;
13708;SDS011;54933;51.908;7.730;2022-08-21T03:38:29;1.20;;;1.10;;
13708;SDS011;54933;51.908;7.730;2022-08-21T03:40:56;1.63;;;1.00;;
13708;SDS011;54933;51.908;7.730;2022-08-21T03:43:21;0.80;;;0.80;;
13708;SDS011;54933;51.908;7.730;2022-08-21T03:45:46;1.00;;;1.00;;
13708;SDS011;54933;51.908;7.730;2022-08-21T03:48:12;1.03;;;0.73;;
13708;SDS011;54933;51.908;7.730;2022-08-21T03:50:38;0.83;;;0.80;;
13708;SDS011;54933;51.908;7.730;2022-08-21T03:53:08;1.10;;;1.10;;
13708;SDS011;54933;51.908;7.730;2022-08-21T03:55:35;1.43;;;0.87;;
13708;SDS011;54933;51.908;7.730;2022-08-21T03:58:01;1.03;;;1.00;;
13708;SDS011;54933;51.908;7.730;2022-08-21T04:00:26;0.80;;;0.80;;
13708;SDS011;54933;51.908;7.730;2022-08-21T04:02:51;0.97;;;0.90;;
13708;SDS011;54933;51.908;7.730;2022-08-21T04:05:17;0.97;;;0.97;;
13708;SDS011;54933;51.908;7.730;2022-08-21T04:07:52;1.10;;;1.03;;
13708;SDS011;54933;51.908;7.730;2022-08-21T04:10:18;1.00;;;1.00;;
13708;SDS011;54933;51.908;7.730;2022-08-21T04:12:44;0.90;;;0.90;;
13708;SDS011;54933;51.908;7.730;2022-08-21T04:15:09;1.03;;;1.00;;
13708;SDS011;54933;51.908;7.730;2022-08-21T04:17:34;0.70;;;0.70;;
13708;SDS011;54933;51.908;7.730;2022-08-21T04:20:01;0.60;;;0.60;;
13708;SDS011;54933;51.908;7.730;2022-08-21T04:22:26;1.30;;;1.20;;
13708;SDS011;54933;51.908;7.730;2022-08-21T04:24:51;1.10;;;1.00;;
13708;SDS011;54933;51.908;7.730;2022-08-21T04:27:17;1.13;;;1.07;;
13708;SDS011;54933;51.908;7.730;2022-08-21T04:29:42;1.40;;;1.30;;
13708;SDS011;54933;51.908;7.730;2022-08-21T04:32:07;2.03;;;1.10;;
13708;SDS011;54933;51.908;7.730;2022-08-21T04:34:32;1.07;;;0.87;;
13708;SDS011;54933;51.908;7.730;2022-08-21T04:36:58;1.03;;;0.93;;
13708;SDS011;54933;51.908;7.730;2022-08-21T04:39:23;1.40;;;1.07;;
13708;SDS011;54933;51.908;7.730;2022-08-21T04:41:48;0.80;;;0.80;;
13708;SDS011;54933;51.908;7.730;2022-08-21T04:44:14;0.87;;;0.87;;
13708;SDS011;54933;51.908;7.730;2022-08-21T04:46:39;0.90;;;0.90;;
13708;SDS011;54933;51.908;7.730;2022-08-21T04:49:05;1.00;;;1.00;;
13708;SDS011;54933;51.908;7.730;2022-08-21T04:51:31;1.13;;;1.00;;
13708;SDS011;54933;51.908;7.730;2022-08-21T04:54:06;1.00;;;1.00;;
13708;SDS011;54933;51.908;7.730;2022-08-21T04:56:41;1.37;;;1.07;;
13708;SDS011;54933;51.908;7.730;2022-08-21T04:59:11;1.00;;;1.00;;
13708;SDS011;54933;51.908;7.730;2022-08-21T05:01:41;0.80;;;0.80;;
13708;SDS011;54933;51.908;7.730;2022-08-21T05:04:08;0.80;;;0.80;;
13708;SDS011;54933;51.908;7.730;2022-08-21T05:06:37;1.20;;;1.00;;
13708;SDS011;54933;51.908;7.730;2022-08-21T05:09:03;0.80;;;0.80;;
13708;SDS011;54933;51.908;7.730;2022-08-21T05:11:30;0.90;;;0.90;;
13708;SDS011;54933;51.908;7.730;2022-08-21T05:13:56;0.80;;;0.80;;
13708;SDS011;54933;51.908;7.730;2022-08-21T05:16:21;0.90;;;0.90;;
13708;SDS011;54933;51.908;7.730;2022-08-21T05:18:47;0.90;;;0.90;;
13708;SDS011;54933;51.908;7.730;2022-08-21T05:21:12;1.00;;;1.00;;
13708;SDS011;54933;51.908;7.730;2022-08-21T05:23:37;1.80;;;1.37;;
13708;SDS011;54933;51.908;7.730;2022-08-21T05:26:03;1.20;;;0.90;;
13708;SDS011;54933;51.908;7.730;2022-08-21T05:28:29;0.90;;;0.90;;
13708;SDS011;54933;51.908;7.730;2022-08-21T05:30:55;2.20;;;0.83;;
13708;SDS011;54933;51.908;7.730;2022-08-21T05:33:20;2.00;;;1.10;;
13708;SDS011;54933;51.908;7.730;2022-08-21T05:35:48;1.03;;;0.90;;
13708;SDS011;54933;51.908;7.730;2022-08-21T05:38:16;0.90;;;0.90;;
13708;SDS011;54933;51.908;7.730;2022-08-21T05:40:41;0.97;;;0.97;;
13708;SDS011;54933;51.908;7.730;2022-08-21T05:43:07;1.00;;;1.00;;
13708;SDS011;54933;51.908;7.730;2022-08-21T05:45:33;0.80;;;0.80;;
13708;SDS011;54933;51.908;7.730;2022-08-21T05:48:05;1.10;;;1.10;;
13708;SDS011;54933;51.908;7.730;2022-08-21T05:50:37;1.47;;;1.00;;
13708;SDS011;54933;51.908;7.730;2022-08-21T05:53:03;1.90;;;1.30;;
13708;SDS011;54933;51.908;7.730;2022-08-21T05:55:29;1.30;;;1.30;;
13708;SDS011;54933;51.908;7.730;2022-08-21T05:57:55;5.37;;;1.50;;
13708;SDS011;54933;51.908;7.730;2022-08-21T06:00:20;3.63;;;2.07;;
13708;SDS011;54933;51.908;7.730;2022-08-21T06:02:47;1.60;;;1.50;;
13708;SDS011;54933;51.908;7.730;2022-08-21T06:05:13;2.00;;;1.40;;
13708;SDS011;54933;51.908;7.730;2022-08-21T06:07:38;2.90;;;1.83;;
13708;SDS011;54933;51.908;7.730;2022-08-21T06:10:04;3.90;;;1.70;;
13708;SDS011;54933;51.908;7.730;2022-08-21T06:12:29;2.87;;;1.60;;
13708;SDS011;54933;51.908;7.730;2022-08-21T06:14:55;2.37;;;1.90;;
13708;SDS011;54933;51.908;7.730;2022-08-21T06:17:20;2.13;;;1.67;;
13708;SDS011;54933;51.908;7.730;2022-08-21T06:19:49;3.03;;;2.27;;
13708;SDS011;54933;51.908;7.730;2022-08-21T06:22:16;2.53;;;1.80;;
13708;SDS011;54933;51.908;7.730;2022-08-21T06:24:41;2.67;;;1.90;;
13708;SDS011;54933;51.908;7.730;2022-08-21T06:27:07;3.80;;;1.70;;
13708;SDS011;54933;51.908;7.730;2022-08-21T06:29:32;6.03;;;2.33;;
13708;SDS011;54933;51.908;7.730;2022-08-21T06:31:59;5.90;;;1.97;;
13708;SDS011;54933;51.908;7.730;2022-08-21T06:34:24;4.13;;;2.17;;
13708;SDS011;54933;51.908;7.730;2022-08-21T06:36:49;5.40;;;2.80;;
13708;SDS011;54933;51.908;7.730;2022-08-21T06:39:14;4.17;;;2.33;;
13708;SDS011;54933;51.908;7.730;2022-08-21T06:41:40;7.37;;;2.30;;
13708;SDS011;54933;51.908;7.730;2022-08-21T06:44:05;6.00;;;2.50;;
13708;SDS011;54933;51.908;7.730;2022-08-21T06:46:31;3.37;;;2.17;;
13708;SDS011;54933;51.908;7.730;2022-08-21T06:48:57;3.60;;;2.23;;
13708;SDS011;54933;51.908;7.730;2022-08-21T06:51:24;3.60;;;2.33;;
13708;SDS011;54933;51.908;7.730;2022-08-21T06:53:50;3.77;;;2.60;;
13708;SDS011;54933;51.908;7.730;2022-08-21T06:56:16;5.23;;;2.53;;
13708;SDS011;54933;51.908;7.730;2022-08-21T06:58:41;2.83;;;2.03;;
13708;SDS011;54933;51.908;7.730;2022-08-21T07:01:06;2.93;;;2.00;;
13708;SDS011;54933;51.908;7.730;2022-08-21T07:03:33;2.97;;;2.00;;
13708;SDS011;54933;51.908;7.730;2022-08-21T07:06:00;5.87;;;2.07;;
13708;SDS011;54933;51.908;7.730;2022-08-21T07:08:26;4.73;;;2.47;;
13708;SDS011;54933;51.908;7.730;2022-08-21T07:10:53;4.20;;;2.20;;
13708;SDS011;54933;51.908;7.730;2022-08-21T07:13:21;4.03;;;2.20;;
13708;SDS011;54933;51.908;7.730;2022-08-21T07:15:46;4.80;;;2.30;;
13708;SDS011;54933;51.908;7.730;2022-08-21T07:18:12;5.27;;;2.33;;
13708;SDS011;54933;51.908;7.730;2022-08-21T07:20:38;3.60;;;2.50;;
13708;SDS011;54933;51.908;7.730;2022-08-21T07:23:05;3.57;;;2.03;;
13708;SDS011;54933;51.908;7.730;2022-08-21T07:25:34;5.37;;;2.27;;
13708;SDS011;54933;51.908;7.730;2022-08-21T07:27:59;3.93;;;1.73;;
13708;SDS011;54933;51.908;7.730;2022-08-21T07:30:25;3.57;;;2.10;;
13708;SDS011;54933;51.908;7.730;2022-08-21T07:32:51;5.13;;;2.20;;
13708;SDS011;54933;51.908;7.730;2022-08-21T07:35:17;3.30;;;2.00;;
13708;SDS011;54933;51.908;7.730;2022-08-21T07:37:44;2.77;;;1.83;;
13708;SDS011;54933;51.908;7.730;2022-08-21T07:40:10;3.33;;;1.70;;
13708;SDS011;54933;51.908;7.730;2022-08-21T07:42:39;3.87;;;2.33;;
13708;SDS011;54933;51.908;7.730;2022-08-21T07:45:06;2.63;;;1.80;;
13708;SDS011;54933;51.908;7.730;2022-08-21T07:47:32;1.60;;;1.50;;
13708;SDS011;54933;51.908;7.730;2022-08-21T07:49:57;2.60;;;1.40;;
13708;SDS011;54933;51.908;7.730;2022-08-21T07:52:22;2.57;;;1.50;;
13708;SDS011;54933;51.908;7.730;2022-08-21T07:54:47;6.97;;;2.00;;
13708;SDS011;54933;51.908;7.730;2022-08-21T07:57:13;1.83;;;1.57;;
13708;SDS011;54933;51.908;7.730;2022-08-21T07:59:38;2.67;;;1.70;;
13708;SDS011;54933;51.908;7.730;2022-08-21T08:02:03;4.23;;;1.50;;
13708;SDS011;54933;51.908;7.730;2022-08-21T08:04:28;4.40;;;1.80;;
13708;SDS011;54933;51.908;7.730;2022-08-21T08:06:54;5.57;;;1.53;;
13708;SDS011;54933;51.908;7.730;2022-08-21T08:09:19;3.30;;;1.47;;
13708;SDS011;54933;51.908;7.730;2022-08-21T08:11:44;1.77;;;1.27;;
13708;SDS011;54933;51.908;7.730;2022-08-21T08:14:10;8.33;;;2.00;;
13708;SDS011;54933;51.908;7.730;2022-08-21T08:16:35;6.00;;;2.13;;
13708;SDS011;54933;51.908;7.730;2022-08-21T08:19:01;4.17;;;2.27;;
13708;SDS011;54933;51.908;7.730;2022-08-21T08:21:26;9.47;;;2.53;;
13708;SDS011;54933;51.908;7.730;2022-08-21T08:23:52;3.40;;;2.73;;
13708;SDS011;54933;51.908;7.730;2022-08-21T08:26:17;6.50;;;2.80;;
13708;SDS011;54933;51.908;7.730;2022-08-21T08:28:43;5.60;;;2.60;;
13708;SDS011;54933;51.908;7.730;2022-08-21T08:31:09;6.60;;;2.83;;
13708;SDS011;54933;51.908;7.730;2022-08-21T08:33:34;7.83;;;2.30;;
13708;SDS011;54933;51.908;7.730;2022-08-21T08:35:59;5.87;;;2.87;;
13708;SDS011;54933;51.908;7.730;2022-08-21T08:38:25;6.30;;;2.47;;
13708;SDS011;54933;51.908;7.730;2022-08-21T08:41:10;10.07;;;2.60;;
13708;SDS011;54933;51.908;7.730;2022-08-21T08:43:38;6.30;;;2.57;;
13708;SDS011;54933;51.908;7.730;2022-08-21T08:46:08;6.27;;;2.40;;
13708;SDS011;54933;51.908;7.730;2022-08-21T08:48:46;6.07;;;2.57;;
13708;SDS011;54933;51.908;7.730;2022-08-21T08:54:09;7.70;;;2.50;;
13708;SDS011;54933;51.908;7.730;2022-08-21T08:56:38;7.03;;;2.30;;
13708;SDS011;54933;51.908;7.730;2022-08-21T08:59:17;4.83;;;1.77;;
13708;SDS011;54933;51.908;7.730;2022-08-21T09:01:46;2.50;;;2.20;;
13708;SDS011;54933;51.908;7.730;2022-08-21T09:04:12;4.40;;;2.03;;
13708;SDS011;54933;51.908;7.730;2022-08-21T09:09:28;2.30;;;1.57;;
13708;SDS011;54933;51.908;7.730;2022-08-21T09:17:35;5.13;;;2.00;;
13708;SDS011;54933;51.908;7.730;2022-08-21T09:25:53;3.43;;;1.60;;
13708;SDS011;54933;51.908;7.730;2022-08-21T09:28:37;4.43;;;1.67;;
13708;SDS011;54933;51.908;7.730;2022-08-21T09:31:06;4.23;;;2.13;;
13708;SDS011;54933;51.908;7.730;2022-08-21T09:33:33;7.10;;;1.83;;
13708;SDS011;54933;51.908;7.730;2022-08-21T09:35:59;49.93;;;4.73;;
13708;SDS011;54933;51.908;7.730;2022-08-21T09:38:32;18.73;;;2.77;;
13708;SDS011;54933;51.908;7.730;2022-08-21T09:41:01;8.60;;;2.53;;
13708;SDS011;54933;51.908;7.730;2022-08-21T09:43:29;7.67;;;2.40;;
13708;SDS011;54933;51.908;7.730;2022-08-21T09:48:53;8.60;;;2.60;;
13708;SDS011;54933;51.908;7.730;2022-08-21T09:51:25;9.40;;;2.90;;
13708;SDS011;54933;51.908;7.730;2022-08-21T09:53:55;12.20;;;2.30;;
13708;SDS011;54933;51.908;7.730;2022-08-21T09:56:28;5.23;;;1.93;;
13708;SDS011;54933;51.908;7.730;2022-08-21T09:59:19;4.93;;;1.80;;
13708;SDS011;54933;51.908;7.730;2022-08-21T10:01:51;6.60;;;2.13;;
13708;SDS011;54933;51.908;7.730;2022-08-21T10:04:20;8.57;;;1.93;;
13708;SDS011;54933;51.908;7.730;2022-08-21T10:06:52;5.20;;;2.00;;
13708;SDS011;54933;51.908;7.730;2022-08-21T10:09:18;7.67;;;1.90;;
13708;SDS011;54933;51.908;7.730;2022-08-21T10:17:29;4.93;;;1.73;;
13708;SDS011;54933;51.908;7.730;2022-08-21T10:20:09;4.93;;;2.10;;
13708;SDS011;54933;51.908;7.730;2022-08-21T10:26:04;6.00;;;1.90;;
13708;SDS011;54933;51.908;7.730;2022-08-21T10:29:00;2.43;;;1.50;;
13708;SDS011;54933;51.908;7.730;2022-08-21T10:37:41;5.87;;;1.50;;
13708;SDS011;54933;51.908;7.730;2022-08-21T10:42:56;3.03;;;1.23;;
13708;SDS011;54933;51.908;7.730;2022-08-21T10:45:44;3.93;;;1.43;;
13708;SDS011;54933;51.908;7.730;2022-08-21T10:48:24;2.97;;;1.50;;
13708;SDS011;54933;51.908;7.730;2022-08-21T10:50:59;3.40;;;1.37;;
13708;SDS011;54933;51.908;7.730;2022-08-21T10:53:36;2.00;;;1.30;;
13708;SDS011;54933;51.908;7.730;2022-08-21T10:56:27;1.93;;;1.53;;
13708;SDS011;54933;51.908;7.730;2022-08-21T10:59:07;3.70;;;1.30;;
13708;SDS011;54933;51.908;7.730;2022-08-21T11:04:33;1.90;;;1.13;;
13708;SDS011;54933;51.908;7.730;2022-08-21T11:07:08;2.63;;;1.53;;
13708;SDS011;54933;51.908;7.730;2022-08-21T11:09:41;1.60;;;1.10;;
13708;SDS011;54933;51.908;7.730;2022-08-21T11:12:23;2.17;;;1.33;;
13708;SDS011;54933;51.908;7.730;2022-08-21T11:14:57;3.60;;;1.50;;
13708;SDS011;54933;51.908;7.730;2022-08-21T11:17:32;1.80;;;1.57;;
13708;SDS011;54933;51.908;7.730;2022-08-21T11:20:07;2.60;;;1.30;;
13708;SDS011;54933;51.908;7.730;2022-08-21T11:22:39;3.87;;;1.53;;
13708;SDS011;54933;51.908;7.730;2022-08-21T11:25:29;3.33;;;1.30;;
13708;SDS011;54933;51.908;7.730;2022-08-21T11:28:08;1.87;;;1.33;;
13708;SDS011;54933;51.908;7.730;2022-08-21T11:33:25;4.77;;;1.53;;
13708;SDS011;54933;51.908;7.730;2022-08-21T11:36:39;3.47;;;1.40;;
13708;SDS011;54933;51.908;7.730;2022-08-21T11:42:09;3.60;;;1.20;;
13708;SDS011;54933;51.908;7.730;2022-08-21T11:47:53;2.13;;;1.20;;
13708;SDS011;54933;51.908;7.730;2022-08-21T11:50:16;1.87;;;1.50;;
13708;SDS011;54933;51.908;7.730;2022-08-21T11:52:49;3.20;;;1.20;;
13708;SDS011;54933;51.908;7.730;2022-08-21T11:55:36;3.07;;;1.30;;
13708;SDS011;54933;51.908;7.730;2022-08-21T11:58:16;2.90;;;1.50;;
13708;SDS011;54933;51.908;7.730;2022-08-21T12:00:55;3.00;;;1.20;;
13708;SDS011;54933;51.908;7.730;2022-08-21T12:03:35;1.53;;;1.10;;
13708;SDS011;54933;51.908;7.730;2022-08-21T12:06:05;1.50;;;1.10;;
13708;SDS011;54933;51.908;7.730;2022-08-21T12:08:36;2.83;;;1.30;;
13708;SDS011;54933;51.908;7.730;2022-08-21T12:13:51;1.90;;;1.10;;
13708;SDS011;54933;51.908;7.730;2022-08-21T12:19:04;1.80;;;1.17;;
13708;SDS011;54933;51.908;7.730;2022-08-21T12:21:30;1.40;;;1.23;;
13708;SDS011;54933;51.908;7.730;2022-08-21T12:24:00;2.53;;;0.93;;
13708;SDS011;54933;51.908;7.730;2022-08-21T12:26:51;2.67;;;1.20;;
13708;SDS011;54933;51.908;7.730;2022-08-21T12:32:41;6.53;;;1.37;;
13708;SDS011;54933;51.908;7.730;2022-08-21T12:34:36;5.03;;;1.30;;
13708;SDS011;54933;51.908;7.730;2022-08-21T12:37:09;4.43;;;1.10;;
13708;SDS011;54933;51.908;7.730;2022-08-21T12:39:43;4.77;;;1.30;;
13708;SDS011;54933;51.908;7.730;2022-08-21T12:42:15;2.00;;;1.03;;
13708;SDS011;54933;51.908;7.730;2022-08-21T12:44:45;2.00;;;1.07;;
13708;SDS011;54933;51.908;7.730;2022-08-21T12:47:16;2.23;;;1.10;;
13708;SDS011;54933;51.908;7.730;2022-08-21T12:49:54;1.00;;;0.80;;
13708;SDS011;54933;51.908;7.730;2022-08-21T12:52:31;1.87;;;1.20;;
13708;SDS011;54933;51.908;7.730;2022-08-21T12:54:59;2.33;;;1.13;;
13708;SDS011;54933;51.908;7.730;2022-08-21T12:57:27;5.07;;;1.20;;
13708;SDS011;54933;51.908;7.730;2022-08-21T12:59:55;2.47;;;1.20;;
13708;SDS011;54933;51.908;7.730;2022-08-21T13:02:23;0.70;;;0.70;;
13708;SDS011;54933;51.908;7.730;2022-08-21T13:05:01;1.10;;;1.00;;
13708;SDS011;54933;51.908;7.730;2022-08-21T13:07:29;2.57;;;1.33;;
13708;SDS011;54933;51.908;7.730;2022-08-21T13:10:05;3.00;;;0.90;;
13708;SDS011;54933;51.908;7.730;2022-08-21T13:12:38;3.97;;;1.20;;
13708;SDS011;54933;51.908;7.730;2022-08-21T13:15:06;3.50;;;1.20;;
13708;SDS011;54933;51.908;7.730;2022-08-21T13:17:34;3.03;;;1.10;;
13708;SDS011;54933;51.908;7.730;2022-08-21T13:20:25;4.57;;;1.30;;
13708;SDS011;54933;51.908;7.730;2022-08-21T13:22:52;1.80;;;1.17;;
13708;SDS011;54933;51.908;7.730;2022-08-21T13:25:18;1.77;;;1.10;;
13708;SDS011;54933;51.908;7.730;2022-08-21T13:27:56;1.77;;;0.90;;
13708;SDS011;54933;51.908;7.730;2022-08-21T13:30:34;1.20;;;0.60;;
13708;SDS011;54933;51.908;7.730;2022-08-21T13:33:04;3.07;;;1.20;;
13708;SDS011;54933;51.908;7.730;2022-08-21T13:35:35;2.17;;;1.07;;
13708;SDS011;54933;51.908;7.730;2022-08-21T13:38:11;5.50;;;1.00;;
13708;SDS011;54933;51.908;7.730;2022-08-21T13:40:47;3.83;;;1.10;;
13708;SDS011;54933;51.908;7.730;2022-08-21T13:43:15;2.83;;;0.80;;
13708;SDS011;54933;51.908;7.730;2022-08-21T13:45:44;1.13;;;0.80;;
13708;SDS011;54933;51.908;7.730;2022-08-21T13:48:12;2.30;;;1.30;;
13708;SDS011;54933;51.908;7.730;2022-08-21T13:50:39;1.37;;;0.80;;
13708;SDS011;54933;51.908;7.730;2022-08-21T13:53:07;2.73;;;0.83;;
13708;SDS011;54933;51.908;7.730;2022-08-21T13:55:44;1.10;;;0.90;;
13708;SDS011;54933;51.908;7.730;2022-08-21T13:58:10;0.90;;;0.70;;
13708;SDS011;54933;51.908;7.730;2022-08-21T14:00:46;1.33;;;0.80;;
13708;SDS011;54933;51.908;7.730;2022-08-21T14:03:23;2.57;;;1.10;;
13708;SDS011;54933;51.908;7.730;2022-08-21T14:05:53;1.33;;;1.20;;
13708;SDS011;54933;51.908;7.730;2022-08-21T14:08:27;1.67;;;0.80;;
13708;SDS011;54933;51.908;7.730;2022-08-21T14:10:53;1.30;;;0.80;;
13708;SDS011;54933;51.908;7.730;2022-08-21T14:13:28;2.07;;;0.70;;
13708;SDS011;54933;51.908;7.730;2022-08-21T14:15:57;1.67;;;0.60;;
13708;SDS011;54933;51.908;7.730;2022-08-21T14:18:23;0.93;;;0.83;;
13708;SDS011;54933;51.908;7.730;2022-08-21T14:20:51;1.00;;;0.80;;
13708;SDS011;54933;51.908;7.730;2022-08-21T14:23:24;1.57;;;0.70;;
13708;SDS011;54933;51.908;7.730;2022-08-21T14:25:50;2.33;;;1.00;;
13708;SDS011;54933;51.908;7.730;2022-08-21T14:28:27;2.67;;;0.93;;
13708;SDS011;54933;51.908;7.730;2022-08-21T14:30:57;2.10;;;0.70;;
13708;SDS011;54933;51.908;7.730;2022-08-21T14:33:25;2.30;;;1.03;;
13708;SDS011;54933;51.908;7.730;2022-08-21T14:35:53;1.80;;;1.07;;
13708;SDS011;54933;51.908;7.730;2022-08-21T14:38:20;3.47;;;1.00;;
13708;SDS011;54933;51.908;7.730;2022-08-21T14:40:48;4.43;;;1.57;;
13708;SDS011;54933;51.908;7.730;2022-08-21T14:43:16;1.60;;;0.80;;
13708;SDS011;54933;51.908;7.730;2022-08-21T14:45:42;2.73;;;1.03;;
13708;SDS011;54933;51.908;7.730;2022-08-21T14:48:09;1.70;;;1.07;;
13708;SDS011;54933;51.908;7.730;2022-08-21T14:50:34;1.70;;;0.70;;
13708;SDS011;54933;51.908;7.730;2022-08-21T14:53:00;1.90;;;0.70;;
13708;SDS011;54933;51.908;7.730;2022-08-21T14:55:25;0.77;;;0.77;;
13708;SDS011;54933;51.908;7.730;2022-08-21T14:57:52;1.67;;;0.90;;
13708;SDS011;54933;51.908;7.730;2022-08-21T15:00:20;2.03;;;0.90;;
13708;SDS011;54933;51.908;7.730;2022-08-21T15:02:50;1.00;;;0.67;;
13708;SDS011;54933;51.908;7.730;2022-08-21T15:05:16;3.10;;;1.20;;
13708;SDS011;54933;51.908;7.730;2022-08-21T15:07:42;0.60;;;0.60;;
13708;SDS011;54933;51.908;7.730;2022-08-21T15:10:08;1.40;;;0.77;;
13708;SDS011;54933;51.908;7.730;2022-08-21T15:12:34;1.50;;;1.07;;
13708;SDS011;54933;51.908;7.730;2022-08-21T15:14:59;2.47;;;1.17;;
13708;SDS011;54933;51.908;7.730;2022-08-21T15:17:25;1.43;;;0.70;;
13708;SDS011;54933;51.908;7.730;2022-08-21T15:19:50;2.40;;;0.80;;
13708;SDS011;54933;51.908;7.730;2022-08-21T15:22:15;1.03;;;0.63;;
13708;SDS011;54933;51.908;7.730;2022-08-21T15:24:41;3.50;;;1.00;;
13708;SDS011;54933;51.908;7.730;2022-08-21T15:27:07;2.23;;;0.93;;
13708;SDS011;54933;51.908;7.730;2022-08-21T15:29:35;2.63;;;0.80;;
13708;SDS011;54933;51.908;7.730;2022-08-21T15:32:02;0.97;;;0.60;;
13708;SDS011;54933;51.908;7.730;2022-08-21T15:34:40;1.20;;;0.70;;
13708;SDS011;54933;51.908;7.730;2022-08-21T15:37:06;2.23;;;0.80;;
13708;SDS011;54933;51.908;7.730;2022-08-21T15:39:32;0.57;;;0.57;;
13708;SDS011;54933;51.908;7.730;2022-08-21T15:41:59;1.90;;;1.00;;
13708;SDS011;54933;51.908;7.730;2022-08-21T15:44:25;1.73;;;1.00;;
13708;SDS011;54933;51.908;7.730;2022-08-21T15:46:52;1.47;;;1.10;;
13708;SDS011;54933;51.908;7.730;2022-08-21T15:49:17;1.40;;;0.90;;
13708;SDS011;54933;51.908;7.730;2022-08-21T15:51:43;0.97;;;0.80;;
13708;SDS011;54933;51.908;7.730;2022-08-21T15:54:09;2.70;;;0.73;;